createdAt,value
2017-11-18T00:00:37.366Z,20.20
2017-11-18T00:03:04.846Z,21.53
2017-11-18T00:05:32.482Z,20.10
2017-11-18T00:08:00.955Z,21.95
2017-11-18T00:10:28.414Z,22.23
2017-11-18T00:12:55.911Z,23.80
2017-11-18T00:15:23.866Z,20.77
2017-11-18T00:17:51.313Z,19.67
2017-11-18T00:20:18.770Z,20.58
2017-11-18T00:22:46.216Z,20.40
2017-11-18T00:25:14.502Z,19.42
2017-11-18T00:27:41.938Z,20.05
2017-11-18T00:30:09.418Z,18.67
2017-11-18T00:32:36.886Z,21.00
2017-11-18T00:35:05.103Z,18.30
2017-11-18T00:37:32.661Z,20.90
2017-11-18T00:40:00.346Z,18.73
2017-11-18T00:42:28.372Z,20.20
2017-11-18T00:44:55.818Z,19.20
2017-11-18T00:47:23.973Z,20.02
2017-11-18T00:49:51.474Z,22.77
2017-11-18T00:52:18.909Z,17.50
2017-11-18T00:54:47.296Z,19.93
2017-11-18T00:57:18.707Z,20.37
2017-11-18T00:59:46.694Z,21.27
2017-11-18T01:02:14.126Z,19.73
2017-11-18T01:04:42.341Z,19.10
2017-11-18T01:07:09.786Z,21.60
2017-11-18T01:09:38.003Z,20.67
2017-11-18T01:12:16.949Z,22.80
2017-11-18T01:14:44.418Z,19.43
2017-11-18T01:17:11.899Z,18.83
2017-11-18T01:19:39.368Z,22.60
2017-11-18T01:22:07.765Z,21.13
2017-11-18T01:24:35.217Z,20.80
2017-11-18T01:27:02.694Z,22.50
2017-11-18T01:29:30.129Z,19.50
2017-11-18T01:31:57.569Z,19.33
2017-11-18T01:34:25.297Z,20.83
2017-11-18T01:36:52.758Z,20.90
2017-11-18T01:39:20.726Z,20.97
2017-11-18T01:41:48.963Z,18.70
2017-11-18T01:44:16.425Z,21.20
2017-11-18T01:46:43.916Z,18.90
2017-11-18T01:49:11.513Z,20.00
2017-11-18T01:51:38.974Z,18.63
2017-11-18T01:54:06.421Z,18.73
2017-11-18T01:56:33.941Z,20.33
2017-11-18T01:59:06.014Z,20.60
2017-11-18T02:01:33.482Z,21.48
2017-11-18T02:04:00.930Z,20.60
2017-11-18T02:06:28.400Z,20.10
2017-11-18T02:08:55.867Z,21.07
2017-11-18T02:11:23.614Z,20.40
2017-11-18T02:13:51.057Z,21.10
2017-11-18T02:16:22.820Z,20.36
2017-11-18T02:18:50.447Z,20.47
2017-11-18T02:21:17.963Z,19.73
2017-11-18T02:23:45.517Z,23.20
2017-11-18T02:26:12.959Z,22.73
2017-11-18T02:28:40.402Z,20.33
2017-11-18T02:31:12.479Z,19.95
2017-11-18T02:33:40.067Z,22.70
2017-11-18T02:36:09.238Z,21.27
2017-11-18T02:38:36.691Z,24.33
2017-11-18T02:41:05.677Z,24.10
2017-11-18T02:43:38.848Z,21.27
2017-11-18T02:46:06.427Z,22.87
2017-11-18T02:48:35.562Z,21.48
2017-11-18T02:51:04.718Z,24.05
2017-11-18T02:53:32.186Z,24.33
2017-11-18T02:55:59.662Z,27.00
2017-11-18T02:58:27.111Z,24.67
2017-11-18T03:00:54.573Z,26.30
2017-11-18T03:03:22.014Z,28.90
2017-11-18T03:05:49.498Z,28.70
2017-11-18T03:08:17.063Z,30.80
2017-11-18T03:10:45.266Z,32.13
2017-11-18T03:13:13.644Z,27.85
2017-11-18T03:15:44.213Z,26.17
2017-11-18T03:18:11.654Z,30.87
2017-11-18T03:20:39.108Z,28.27
2017-11-18T03:23:06.774Z,30.70
2017-11-18T03:25:34.253Z,29.30
2017-11-18T03:28:02.410Z,32.10
2017-11-18T03:30:29.853Z,28.63
2017-11-18T03:32:57.555Z,27.98
2017-11-18T03:35:24.999Z,29.33
2017-11-18T03:37:52.485Z,26.62
2017-11-18T03:40:20.523Z,27.83
2017-11-18T03:42:47.983Z,27.80
2017-11-18T03:45:15.673Z,27.70
2017-11-18T03:47:44.227Z,34.33
2017-11-18T03:50:11.691Z,29.37
2017-11-18T03:52:40.366Z,30.40
2017-11-18T03:55:07.986Z,31.43
2017-11-18T03:57:35.561Z,29.13
2017-11-18T04:00:03.209Z,28.27
2017-11-18T04:02:30.666Z,27.73
2017-11-18T04:04:58.223Z,31.60
2017-11-18T04:07:25.675Z,28.10
2017-11-18T04:09:54.078Z,25.83
2017-11-18T04:12:21.522Z,27.63
2017-11-18T04:14:48.973Z,23.45
2017-11-18T04:17:19.726Z,22.05
2017-11-18T04:19:48.857Z,24.53
2017-11-18T04:22:17.094Z,26.27
2017-11-18T04:24:44.539Z,22.35
2017-11-18T04:27:12.005Z,24.08
2017-11-18T04:29:39.487Z,22.73
2017-11-18T04:32:07.888Z,20.67
2017-11-18T04:34:35.308Z,22.63
2017-11-18T04:37:02.871Z,22.10
2017-11-18T04:39:30.322Z,18.27
2017-11-18T04:41:57.793Z,19.90
2017-11-18T04:44:25.581Z,18.40
2017-11-18T04:46:57.310Z,16.12
2017-11-18T04:49:24.802Z,20.33
2017-11-18T04:51:52.534Z,18.30
2017-11-18T04:54:20.194Z,17.40
2017-11-18T04:56:47.645Z,20.60
2017-11-18T04:59:15.124Z,17.37
2017-11-18T05:01:52.989Z,14.70
2017-11-18T05:04:21.227Z,16.08
2017-11-18T05:06:48.697Z,14.00
2017-11-18T05:09:16.143Z,16.87
2017-11-18T05:11:43.853Z,15.00
2017-11-18T05:14:11.327Z,12.88
2017-11-18T05:16:44.541Z,15.17
2017-11-18T05:19:13.691Z,14.20
2017-11-18T05:21:42.525Z,15.80
2017-11-18T05:24:10.055Z,14.37
2017-11-18T05:26:37.518Z,15.20
2017-11-18T05:29:05.293Z,14.65
2017-11-18T05:31:32.741Z,14.55
2017-11-18T05:34:03.985Z,14.05
2017-11-18T05:36:32.368Z,16.67
2017-11-18T05:38:59.838Z,14.13
2017-11-18T05:41:27.485Z,15.67
2017-11-18T05:43:54.922Z,14.13
2017-11-18T05:46:26.389Z,14.90
2017-11-18T05:48:53.827Z,14.65
2017-11-18T05:51:22.510Z,16.70
2017-11-18T05:53:50.014Z,15.87
2017-11-18T05:56:17.482Z,13.30
2017-11-18T05:58:44.917Z,14.75
2017-11-18T06:01:12.424Z,15.20
2017-11-18T06:03:39.870Z,16.07
2017-11-18T06:06:07.346Z,14.70
2017-11-18T06:08:34.967Z,16.00
2017-11-18T06:11:02.421Z,14.70
2017-11-18T06:13:30.378Z,16.10
2017-11-18T06:15:57.884Z,13.60
2017-11-18T06:18:25.363Z,14.30
2017-11-18T06:20:52.834Z,13.40
2017-11-18T06:23:20.279Z,12.73
2017-11-18T06:25:47.788Z,15.50
2017-11-18T06:28:15.234Z,13.87
2017-11-18T06:30:42.727Z,13.93
2017-11-18T06:33:10.222Z,15.32
2017-11-18T06:35:38.621Z,12.85
2017-11-18T06:38:06.057Z,15.47
2017-11-18T06:40:33.542Z,14.60
2017-11-18T06:43:01.172Z,14.20
2017-11-18T06:45:28.618Z,14.43
2017-11-18T06:48:00.201Z,14.60
2017-11-18T06:50:27.995Z,14.80
2017-11-18T06:52:55.732Z,15.15
2017-11-18T06:55:23.377Z,13.88
2017-11-18T06:57:50.846Z,14.67
2017-11-18T07:00:18.326Z,16.00
2017-11-18T07:02:54.573Z,14.48
2017-11-18T07:05:22.227Z,15.00
2017-11-18T07:07:49.689Z,13.93
2017-11-18T07:10:17.692Z,14.10
2017-11-18T07:12:45.139Z,13.30
2017-11-18T07:15:12.601Z,14.50
2017-11-18T07:17:40.115Z,12.83
2017-11-18T07:20:07.738Z,13.70
2017-11-18T07:22:35.201Z,13.98
2017-11-18T07:25:02.710Z,13.10
2017-11-18T07:27:31.849Z,12.37
2017-11-18T07:29:59.326Z,12.23
2017-11-18T07:32:26.998Z,12.90
2017-11-18T07:34:54.442Z,13.97
2017-11-18T07:37:24.997Z,12.00
2017-11-18T07:39:52.454Z,12.90
2017-11-18T07:42:21.755Z,11.55
2017-11-18T07:44:49.227Z,13.62
2017-11-18T07:47:16.971Z,12.80
2017-11-18T07:49:49.872Z,15.33
2017-11-18T07:52:17.946Z,13.57
2017-11-18T07:54:46.409Z,15.12
2017-11-18T07:57:13.851Z,17.20
2017-11-18T07:59:41.338Z,15.37
2017-11-18T08:02:08.823Z,17.13
2017-11-18T08:04:36.543Z,14.25
2017-11-18T08:07:04.945Z,15.43
2017-11-18T08:09:32.403Z,14.20
2017-11-18T08:12:00.057Z,15.87
2017-11-18T08:14:28.265Z,16.27
2017-11-18T08:16:55.730Z,14.83
2017-11-18T08:19:23.180Z,14.63
2017-11-18T08:21:50.649Z,14.57
2017-11-18T08:24:18.339Z,16.02
2017-11-18T08:26:46.105Z,14.50
2017-11-18T08:29:14.482Z,12.55
2017-11-18T08:31:42.112Z,11.93
2017-11-18T08:34:14.017Z,14.20
2017-11-18T08:36:42.986Z,10.63
2017-11-18T08:39:10.469Z,12.80
2017-11-18T08:41:38.634Z,12.37
2017-11-18T08:44:06.284Z,10.63
2017-11-18T08:46:33.777Z,10.07
2017-11-18T08:49:01.250Z,10.87
2017-11-18T08:51:28.736Z,8.50
2017-11-18T08:53:56.324Z,8.40
2017-11-18T08:56:23.790Z,8.43
2017-11-18T08:58:51.233Z,11.27
2017-11-18T09:01:18.710Z,9.70
2017-11-18T09:03:47.927Z,10.10
2017-11-18T09:06:20.286Z,8.83
2017-11-18T09:08:47.826Z,11.40
2017-11-18T09:11:15.306Z,11.33
2017-11-18T09:13:42.775Z,10.30
2017-11-18T09:16:10.217Z,11.93
2017-11-18T09:18:37.720Z,12.20
2017-11-18T09:21:05.172Z,10.20
2017-11-18T09:23:32.677Z,10.00
2017-11-18T09:26:01.442Z,7.97
2017-11-18T09:28:29.126Z,7.03
2017-11-18T09:30:56.890Z,10.40
2017-11-18T09:33:24.374Z,11.83
2017-11-18T09:35:51.801Z,6.60
2017-11-18T09:38:19.273Z,12.62
2017-11-18T09:40:46.739Z,10.50
2017-11-18T09:43:14.567Z,12.35
2017-11-18T09:45:42.238Z,12.40
2017-11-18T09:48:09.710Z,13.07
2017-11-18T09:50:37.166Z,11.30
2017-11-18T09:53:09.847Z,9.87
2017-11-18T09:55:37.320Z,11.75
2017-11-18T09:58:04.971Z,12.40
2017-11-18T10:00:32.513Z,9.23
2017-11-18T10:02:59.983Z,12.35
2017-11-18T10:05:27.421Z,15.70
2017-11-18T10:07:58.260Z,11.12
2017-11-18T10:10:25.714Z,11.97
2017-11-18T10:12:53.418Z,13.98
2017-11-18T10:15:20.902Z,13.15
2017-11-18T10:17:48.608Z,16.50
2017-11-18T10:20:16.082Z,13.13
2017-11-18T10:22:43.525Z,13.43
2017-11-18T10:25:11.731Z,11.00
2017-11-18T10:27:39.215Z,10.97
2017-11-18T10:30:07.294Z,8.44
2017-11-18T10:32:34.753Z,9.20
2017-11-18T10:35:02.240Z,10.13
2017-11-18T10:37:33.952Z,12.75
2017-11-18T10:40:02.390Z,9.45
2017-11-18T10:42:30.826Z,9.00
2017-11-18T10:44:58.493Z,12.37
2017-11-18T10:47:26.686Z,11.20
2017-11-18T10:49:54.158Z,10.30
2017-11-18T10:52:25.784Z,8.87
2017-11-18T10:54:54.601Z,13.43
2017-11-18T10:57:22.085Z,12.40
2017-11-18T10:59:49.565Z,12.17
2017-11-18T11:02:17.066Z,10.20
2017-11-18T11:04:44.500Z,12.30
2017-11-18T11:07:11.982Z,10.53
2017-11-18T11:09:39.446Z,14.20
2017-11-18T11:12:07.443Z,12.75
2017-11-18T11:14:35.450Z,14.26
2017-11-18T11:17:02.894Z,17.10
2017-11-18T11:19:30.352Z,15.77
2017-11-18T11:22:01.630Z,13.97
2017-11-18T11:24:29.078Z,15.10
2017-11-18T11:26:56.541Z,13.02
2017-11-18T11:29:24.854Z,13.70
2017-11-18T11:31:52.299Z,9.90
2017-11-18T11:34:19.748Z,12.47
2017-11-18T11:36:47.990Z,14.27
2017-11-18T11:39:15.431Z,11.90
2017-11-18T11:41:43.986Z,11.80
2017-11-18T11:44:11.418Z,7.60
2017-11-18T11:46:38.926Z,10.03
2017-11-18T11:49:06.472Z,9.43
2017-11-18T11:51:33.957Z,11.10
2017-11-18T11:54:01.433Z,12.33
2017-11-18T11:56:29.649Z,9.07
2017-11-18T11:58:58.686Z,9.40
2017-11-18T12:01:26.166Z,10.53
2017-11-18T12:03:53.609Z,11.90
2017-11-18T12:06:22.300Z,10.07
2017-11-18T12:08:49.775Z,11.47
2017-11-18T12:11:18.054Z,10.13
2017-11-18T12:13:45.493Z,9.88
2017-11-18T12:16:13.979Z,11.80
2017-11-18T12:18:41.430Z,9.90
2017-11-18T12:21:09.367Z,10.97
2017-11-18T12:23:36.959Z,8.68
2017-11-18T12:26:04.403Z,8.07
2017-11-18T12:28:31.875Z,9.18
2017-11-18T12:30:59.339Z,9.90
2017-11-18T12:33:26.778Z,9.30
2017-11-18T12:35:55.165Z,11.32
2017-11-18T12:38:26.536Z,12.00
2017-11-18T12:40:53.993Z,6.90
2017-11-18T12:43:21.463Z,10.13
2017-11-18T12:45:49.866Z,10.50
2017-11-18T12:48:17.332Z,13.00
2017-11-18T12:50:44.827Z,8.05
2017-11-18T12:53:12.354Z,12.18
2017-11-18T12:55:39.829Z,10.50
2017-11-18T12:58:07.382Z,11.80
2017-11-18T13:00:34.877Z,13.80
2017-11-18T13:03:03.262Z,10.30
2017-11-18T13:05:30.798Z,12.77
2017-11-18T13:07:58.268Z,12.33
2017-11-18T13:10:25.735Z,12.00
2017-11-18T13:12:53.208Z,12.93
2017-11-18T13:15:20.850Z,13.73
2017-11-18T13:17:48.311Z,12.67
2017-11-18T13:20:16.601Z,13.63
2017-11-18T13:22:44.822Z,12.65
2017-11-18T13:25:12.466Z,13.40
2017-11-18T13:27:39.938Z,12.00
2017-11-18T13:30:07.384Z,14.43
2017-11-18T13:32:34.978Z,15.18
2017-11-18T13:35:02.447Z,14.30
2017-11-18T13:37:30.442Z,14.38
2017-11-18T13:39:57.887Z,13.30
2017-11-18T13:42:25.438Z,15.20
2017-11-18T13:44:52.890Z,11.30
2017-11-18T13:47:20.353Z,9.63
2017-11-18T13:49:47.849Z,11.98
2017-11-18T13:52:15.474Z,12.70
2017-11-18T13:54:42.954Z,11.83
2017-11-18T13:57:15.074Z,13.70
2017-11-18T13:59:42.525Z,10.30
2017-11-18T14:02:10.290Z,12.70
2017-11-18T14:04:37.781Z,11.20
2017-11-18T14:07:05.409Z,10.93
2017-11-18T14:09:33.814Z,10.50
2017-11-18T14:12:05.111Z,12.05
2017-11-18T14:14:32.563Z,11.23
2017-11-18T14:17:00.058Z,11.30
2017-11-18T14:19:27.494Z,13.13
2017-11-18T14:21:54.981Z,10.37
2017-11-18T14:24:23.976Z,12.68
2017-11-18T14:26:51.634Z,10.93
2017-11-18T14:29:19.102Z,12.20
2017-11-18T14:31:46.578Z,15.38
2017-11-18T14:34:14.062Z,11.52
2017-11-18T14:36:42.111Z,12.95
2017-11-18T14:39:09.598Z,12.63
2017-11-18T14:41:40.064Z,13.60
2017-11-18T14:44:07.518Z,9.73
2017-11-18T14:46:34.977Z,12.00
2017-11-18T14:49:02.444Z,12.48
2017-11-18T14:51:29.918Z,12.33
2017-11-18T14:53:57.370Z,10.50
2017-11-18T14:56:28.496Z,13.35
2017-11-18T14:58:56.413Z,12.48
2017-11-18T15:01:23.884Z,11.63
2017-11-18T15:03:51.326Z,11.40
2017-11-18T15:06:18.798Z,14.30
2017-11-18T15:08:46.252Z,14.67
2017-11-18T15:11:24.911Z,13.47
2017-11-18T15:13:52.385Z,12.40
2017-11-18T15:16:35.627Z,14.80
2017-11-18T15:19:08.657Z,15.70
2017-11-18T15:21:41.851Z,14.70
2017-11-18T15:24:15.282Z,12.87
2017-11-18T15:26:51.439Z,13.70
2017-11-18T15:29:24.473Z,13.80
2017-11-18T15:31:57.678Z,13.63
2017-11-18T15:34:31.334Z,17.03
2017-11-18T15:37:05.886Z,15.45
2017-11-18T15:39:33.370Z,16.40
2017-11-18T15:42:00.798Z,14.63
2017-11-18T15:47:34.149Z,11.85
2017-11-18T15:50:07.306Z,13.80
2017-11-18T15:55:43.318Z,11.10
2017-11-18T15:58:29.279Z,12.90
2017-11-18T16:01:02.776Z,10.80
2017-11-18T16:03:31.134Z,9.55
2017-11-18T16:05:58.587Z,11.43
2017-11-18T16:08:26.743Z,8.88
2017-11-18T16:10:54.283Z,10.10
2017-11-18T16:13:21.734Z,5.10
2017-11-18T16:15:49.203Z,7.63
2017-11-18T16:18:16.630Z,5.25
2017-11-18T16:20:44.118Z,8.98
2017-11-18T16:23:11.563Z,7.17
2017-11-18T16:25:39.069Z,5.10
2017-11-18T16:28:06.515Z,5.23
2017-11-18T16:30:34.026Z,7.67
2017-11-18T16:33:01.463Z,8.50
2017-11-18T16:35:30.393Z,7.75
2017-11-18T16:37:57.825Z,7.97
2017-11-18T16:40:25.707Z,7.93
2017-11-18T16:42:58.593Z,8.30
2017-11-18T16:45:26.076Z,6.63
2017-11-18T16:47:54.754Z,5.45
2017-11-18T16:50:22.255Z,8.07
2017-11-18T16:52:49.739Z,7.62
2017-11-18T16:55:17.276Z,7.12
2017-11-18T16:57:44.703Z,6.28
2017-11-18T17:00:14.542Z,7.40
2017-11-18T17:02:42.007Z,8.68
2017-11-18T17:05:09.473Z,6.20
2017-11-18T17:07:37.151Z,6.13
2017-11-18T17:10:04.662Z,6.93
2017-11-18T17:12:33.572Z,6.22
2017-11-18T17:15:01.039Z,6.20
2017-11-18T17:17:28.504Z,6.75
2017-11-18T17:19:55.973Z,7.10
2017-11-18T17:22:23.414Z,6.50
2017-11-18T17:24:50.868Z,6.60
2017-11-18T17:27:18.346Z,6.43
2017-11-18T17:29:47.490Z,6.63
2017-11-18T17:32:15.163Z,5.90
2017-11-18T17:34:42.622Z,6.83
2017-11-18T17:37:10.075Z,6.30
2017-11-18T17:39:37.533Z,6.23
2017-11-18T17:42:06.497Z,6.30
2017-11-18T17:44:33.961Z,6.10
2017-11-18T17:47:01.692Z,4.97
2017-11-18T17:49:29.134Z,5.57
2017-11-18T17:51:56.671Z,6.32
2017-11-18T17:54:24.105Z,6.47
2017-11-18T17:56:51.578Z,7.93
2017-11-18T17:59:20.175Z,5.60
2017-11-18T18:01:47.618Z,5.30
2017-11-18T18:04:15.095Z,7.70
2017-11-18T18:06:42.530Z,5.85
2017-11-18T18:09:11.563Z,6.18
2017-11-18T18:11:39.043Z,5.97
2017-11-18T18:14:07.238Z,5.70
2017-11-18T18:16:34.729Z,7.67
2017-11-18T18:19:02.518Z,7.50
2017-11-18T18:21:29.980Z,6.07
2017-11-18T18:23:57.446Z,7.32
2017-11-18T18:26:26.466Z,7.45
2017-11-18T18:28:54.072Z,9.50
2017-11-18T18:31:21.534Z,8.47
2017-11-18T18:33:49.194Z,6.13
2017-11-18T18:36:16.988Z,7.25
2017-11-18T18:38:44.727Z,7.83
2017-11-18T18:41:12.184Z,7.57
2017-11-18T18:43:39.664Z,7.83
2017-11-18T18:46:07.148Z,8.20
2017-11-18T18:48:34.650Z,8.73
2017-11-18T18:51:02.137Z,7.12
2017-11-18T18:53:30.255Z,8.00
2017-11-18T18:55:58.139Z,7.30
2017-11-18T18:58:26.244Z,5.32
2017-11-18T19:00:53.919Z,7.53
2017-11-18T19:03:22.588Z,7.83
2017-11-18T19:05:50.052Z,6.77
2017-11-18T19:08:17.656Z,8.00
2017-11-18T19:10:45.359Z,5.68
2017-11-18T19:13:12.825Z,7.23
2017-11-18T19:15:40.285Z,9.67
2017-11-18T19:18:09.270Z,6.40
2017-11-18T19:20:36.745Z,8.50
2017-11-18T19:23:04.756Z,8.03
2017-11-18T19:25:34.164Z,8.05
2017-11-18T19:28:02.061Z,6.70
2017-11-18T19:30:29.790Z,7.57
2017-11-18T19:32:57.913Z,7.47
2017-11-18T19:35:25.459Z,7.70
2017-11-18T19:37:53.222Z,6.77
2017-11-18T19:40:20.951Z,8.10
2017-11-18T19:42:48.508Z,8.30
2017-11-18T19:45:15.974Z,8.90
2017-11-18T19:47:43.405Z,7.62
2017-11-18T19:50:10.981Z,8.55
2017-11-18T19:52:38.439Z,8.20
2017-11-18T19:55:08.174Z,7.30
2017-11-18T19:57:38.032Z,8.27
2017-11-18T20:00:05.551Z,7.00
2017-11-18T20:02:33.315Z,8.00
2017-11-18T20:05:02.276Z,7.57
2017-11-18T20:07:29.710Z,8.20
2017-11-18T20:09:57.172Z,8.27
2017-11-18T20:12:24.678Z,8.63
2017-11-18T20:14:52.127Z,6.60
2017-11-18T20:17:21.250Z,6.17
2017-11-18T20:19:48.718Z,6.00
2017-11-18T20:22:16.172Z,7.62
2017-11-18T20:24:43.714Z,8.17
2017-11-18T20:27:11.310Z,7.80
2017-11-18T20:29:40.433Z,7.47
2017-11-18T20:32:08.051Z,7.55
2017-11-18T20:34:35.724Z,7.70
2017-11-18T20:37:03.159Z,7.20
2017-11-18T20:39:31.361Z,7.22
2017-11-18T20:41:59.689Z,7.30
2017-11-18T20:44:27.147Z,7.10
2017-11-18T20:46:54.787Z,6.53
2017-11-18T20:49:25.725Z,7.70
2017-11-18T20:51:53.753Z,7.20
2017-11-18T20:54:21.263Z,6.77
2017-11-18T20:56:48.731Z,7.10
2017-11-18T20:59:16.162Z,7.18
2017-11-18T21:01:48.263Z,7.72
2017-11-18T21:04:22.746Z,7.83
2017-11-18T21:06:50.224Z,6.80
2017-11-18T21:09:18.007Z,6.53
2017-11-18T21:11:45.451Z,6.90
2017-11-18T21:14:13.838Z,7.70
2017-11-18T21:16:41.299Z,7.70
2017-11-18T21:19:08.756Z,7.80
2017-11-18T21:21:36.226Z,7.10
2017-11-18T21:24:03.878Z,7.83
2017-11-18T21:26:31.324Z,6.73
2017-11-18T21:28:58.794Z,6.87
2017-11-18T21:31:26.253Z,5.50
2017-11-18T21:33:57.947Z,7.22
2017-11-18T21:36:26.402Z,6.83
2017-11-18T21:38:54.606Z,5.93
2017-11-18T21:41:22.543Z,5.60
2017-11-18T21:43:50.002Z,6.33
2017-11-18T21:46:18.466Z,7.27
2017-11-18T21:48:46.841Z,6.60
2017-11-18T21:51:14.490Z,8.60
2017-11-18T21:53:41.962Z,8.03
2017-11-18T21:56:09.431Z,7.60
2017-11-18T21:58:36.877Z,8.10
2017-11-18T22:01:04.334Z,6.00
2017-11-18T22:03:35.231Z,7.10
2017-11-18T22:06:02.878Z,6.70
2017-11-18T22:08:30.795Z,8.10
2017-11-18T22:10:58.229Z,6.62
2017-11-18T22:13:25.695Z,7.53
2017-11-18T22:15:53.166Z,7.80
2017-11-18T22:18:24.627Z,8.18
2017-11-18T22:20:52.088Z,5.80
2017-11-18T22:23:20.336Z,7.68
2017-11-18T22:25:47.798Z,6.07
2017-11-18T22:28:15.475Z,7.67
2017-11-18T22:30:43.108Z,7.10
2017-11-18T22:33:10.558Z,6.67
2017-11-18T22:35:38.022Z,6.50
2017-11-18T22:38:05.611Z,5.90
2017-11-18T22:40:33.190Z,6.18
2017-11-18T22:43:01.304Z,6.97
2017-11-18T22:45:28.779Z,6.57
2017-11-18T22:47:56.214Z,6.00
2017-11-18T22:50:23.646Z,5.53
2017-11-18T22:52:51.706Z,6.00
2017-11-18T22:55:19.226Z,6.67
2017-11-18T22:57:48.389Z,6.17
2017-11-18T23:00:15.821Z,6.57
2017-11-18T23:02:44.081Z,5.60
2017-11-18T23:05:12.444Z,6.62
2017-11-18T23:07:39.986Z,6.67
2017-11-18T23:10:07.454Z,5.53
2017-11-18T23:12:34.927Z,6.72
2017-11-18T23:15:02.451Z,6.10
2017-11-18T23:17:29.952Z,4.80
2017-11-18T23:19:57.410Z,4.97
2017-11-18T23:22:26.706Z,4.57
2017-11-18T23:24:54.163Z,5.37
2017-11-18T23:27:21.602Z,4.00
2017-11-18T23:29:49.058Z,4.80
2017-11-18T23:32:16.506Z,4.78
2017-11-18T23:34:43.967Z,4.35
2017-11-18T23:37:11.431Z,4.80
2017-11-18T23:39:39.623Z,4.28
2017-11-18T23:42:07.085Z,5.30
2017-11-18T23:44:35.437Z,3.92
2017-11-18T23:47:02.904Z,4.63
2017-11-18T23:49:30.346Z,4.07
2017-11-18T23:51:58.469Z,5.22
2017-11-18T23:54:26.705Z,4.40
2017-11-18T23:56:54.258Z,4.10
2017-11-18T23:59:21.739Z,3.80
